sensor_id;sensor_type;location;lat;lon;timestamp;temperature;humidity
17948;DHT22;9099;47.958;11.366;2023-07-13T00:00:44;18.70;99.90
17948;DHT22;9099;47.958;11.366;2023-07-13T00:03:11;18.80;99.90
17948;DHT22;9099;47.958;11.366;2023-07-13T00:05:39;18.80;99.90
17948;DHT22;9099;47.958;11.366;2023-07-13T00:08:08;18.80;99.90
17948;DHT22;9099;47.958;11.366;2023-07-13T00:10:39;18.80;99.90
17948;DHT22;9099;47.958;11.366;2023-07-13T00:13:07;18.80;99.90
17948;DHT22;9099;47.958;11.366;2023-07-13T00:15:34;18.90;99.90
17948;DHT22;9099;47.958;11.366;2023-07-13T00:18:01;18.80;99.90
17948;DHT22;9099;47.958;11.366;2023-07-13T00:20:28;18.90;99.90
17948;DHT22;9099;47.958;11.366;2023-07-13T00:22:55;19.00;99.90
17948;DHT22;9099;47.958;11.366;2023-07-13T00:25:23;19.00;99.90
17948;DHT22;9099;47.958;11.366;2023-07-13T00:27:53;19.00;99.90
17948;DHT22;9099;47.958;11.366;2023-07-13T00:30:21;19.10;99.90
17948;DHT22;9099;47.958;11.366;2023-07-13T00:32:48;19.20;99.90
17948;DHT22;9099;47.958;11.366;2023-07-13T00:35:15;19.20;99.90
17948;DHT22;9099;47.958;11.366;2023-07-13T00:37:42;19.20;99.90
17948;DHT22;9099;47.958;11.366;2023-07-13T00:40:10;19.20;99.90
17948;DHT22;9099;47.958;11.366;2023-07-13T00:42:39;19.20;99.90
17948;DHT22;9099;47.958;11.366;2023-07-13T00:48:15;19.20;99.90
17948;DHT22;9099;47.958;11.366;2023-07-13T00:50:45;19.10;99.90
17948;DHT22;9099;47.958;11.366;2023-07-13T00:53:13;19.00;99.90
17948;DHT22;9099;47.958;11.366;2023-07-13T00:55:40;19.10;99.90
17948;DHT22;9099;47.958;11.366;2023-07-13T00:58:08;19.10;99.90
17948;DHT22;9099;47.958;11.366;2023-07-13T01:00:36;19.00;99.90
17948;DHT22;9099;47.958;11.366;2023-07-13T01:03:05;19.00;99.90
17948;DHT22;9099;47.958;11.366;2023-07-13T01:05:33;19.10;99.90
17948;DHT22;9099;47.958;11.366;2023-07-13T01:08:02;19.10;99.90
17948;DHT22;9099;47.958;11.366;2023-07-13T01:10:29;19.10;99.90
17948;DHT22;9099;47.958;11.366;2023-07-13T01:13:05;19.10;99.90
17948;DHT22;9099;47.958;11.366;2023-07-13T01:15:38;19.10;99.90
17948;DHT22;9099;47.958;11.366;2023-07-13T01:18:06;19.10;99.90
17948;DHT22;9099;47.958;11.366;2023-07-13T01:20:34;19.10;99.90
17948;DHT22;9099;47.958;11.366;2023-07-13T01:23:05;19.10;99.90
17948;DHT22;9099;47.958;11.366;2023-07-13T01:25:33;19.10;99.90
17948;DHT22;9099;47.958;11.366;2023-07-13T01:28:00;19.10;99.90
17948;DHT22;9099;47.958;11.366;2023-07-13T01:30:27;19.10;99.90
17948;DHT22;9099;47.958;11.366;2023-07-13T01:32:54;19.10;99.90
17948;DHT22;9099;47.958;11.366;2023-07-13T01:35:20;19.10;99.90
17948;DHT22;9099;47.958;11.366;2023-07-13T01:37:47;19.00;99.90
17948;DHT22;9099;47.958;11.366;2023-07-13T01:40:15;19.00;99.90
17948;DHT22;9099;47.958;11.366;2023-07-13T01:42:42;19.00;99.90
17948;DHT22;9099;47.958;11.366;2023-07-13T01:45:10;19.00;99.90
17948;DHT22;9099;47.958;11.366;2023-07-13T01:47:36;19.00;99.90
17948;DHT22;9099;47.958;11.366;2023-07-13T01:50:04;19.00;99.90
17948;DHT22;9099;47.958;11.366;2023-07-13T01:52:31;18.90;99.90
17948;DHT22;9099;47.958;11.366;2023-07-13T01:54:58;18.90;99.90
17948;DHT22;9099;47.958;11.366;2023-07-13T01:57:26;18.90;99.90
17948;DHT22;9099;47.958;11.366;2023-07-13T01:59:53;18.90;99.90
17948;DHT22;9099;47.958;11.366;2023-07-13T02:02:20;18.90;99.90
17948;DHT22;9099;47.958;11.366;2023-07-13T02:04:46;19.00;99.90
17948;DHT22;9099;47.958;11.366;2023-07-13T02:07:14;19.00;99.90
17948;DHT22;9099;47.958;11.366;2023-07-13T02:09:41;19.00;99.90
17948;DHT22;9099;47.958;11.366;2023-07-13T02:12:09;19.00;99.90
17948;DHT22;9099;47.958;11.366;2023-07-13T02:14:37;19.00;99.90
17948;DHT22;9099;47.958;11.366;2023-07-13T02:17:04;18.90;99.90
17948;DHT22;9099;47.958;11.366;2023-07-13T02:19:31;18.90;99.90
17948;DHT22;9099;47.958;11.366;2023-07-13T02:21:58;18.90;99.90
17948;DHT22;9099;47.958;11.366;2023-07-13T02:24:25;19.00;99.90
17948;DHT22;9099;47.958;11.366;2023-07-13T02:26:52;19.00;99.90
17948;DHT22;9099;47.958;11.366;2023-07-13T02:29:19;19.00;99.90
17948;DHT22;9099;47.958;11.366;2023-07-13T02:31:47;19.00;99.90
17948;DHT22;9099;47.958;11.366;2023-07-13T02:34:14;19.00;99.90
17948;DHT22;9099;47.958;11.366;2023-07-13T02:36:41;19.00;99.90
17948;DHT22;9099;47.958;11.366;2023-07-13T02:39:09;19.10;99.90
17948;DHT22;9099;47.958;11.366;2023-07-13T02:41:37;19.10;99.90
17948;DHT22;9099;47.958;11.366;2023-07-13T02:44:04;19.20;99.90
17948;DHT22;9099;47.958;11.366;2023-07-13T02:46:34;19.20;99.90
17948;DHT22;9099;47.958;11.366;2023-07-13T02:49:03;19.20;99.90
17948;DHT22;9099;47.958;11.366;2023-07-13T02:51:30;19.20;99.90
17948;DHT22;9099;47.958;11.366;2023-07-13T02:53:58;19.20;99.90
17948;DHT22;9099;47.958;11.366;2023-07-13T02:56:28;19.20;99.90
17948;DHT22;9099;47.958;11.366;2023-07-13T02:58:55;19.30;99.90
17948;DHT22;9099;47.958;11.366;2023-07-13T03:01:22;19.20;99.90
17948;DHT22;9099;47.958;11.366;2023-07-13T03:03:50;19.20;99.90
17948;DHT22;9099;47.958;11.366;2023-07-13T03:06:19;19.20;99.90
17948;DHT22;9099;47.958;11.366;2023-07-13T03:08:47;19.10;99.90
17948;DHT22;9099;47.958;11.366;2023-07-13T03:11:17;19.00;99.90
17948;DHT22;9099;47.958;11.366;2023-07-13T03:13:44;19.10;99.90
17948;DHT22;9099;47.958;11.366;2023-07-13T03:16:11;19.00;99.90
17948;DHT22;9099;47.958;11.366;2023-07-13T03:18:38;19.00;99.90
17948;DHT22;9099;47.958;11.366;2023-07-13T03:21:05;18.90;99.90
17948;DHT22;9099;47.958;11.366;2023-07-13T03:23:34;18.80;99.90
17948;DHT22;9099;47.958;11.366;2023-07-13T03:26:01;18.80;99.90
17948;DHT22;9099;47.958;11.366;2023-07-13T03:28:28;18.70;99.90
17948;DHT22;9099;47.958;11.366;2023-07-13T03:31:00;18.70;99.90
17948;DHT22;9099;47.958;11.366;2023-07-13T03:33:27;18.70;99.90
17948;DHT22;9099;47.958;11.366;2023-07-13T03:35:53;18.70;99.90
17948;DHT22;9099;47.958;11.366;2023-07-13T03:38:20;18.70;99.90
17948;DHT22;9099;47.958;11.366;2023-07-13T03:40:48;18.70;99.90
17948;DHT22;9099;47.958;11.366;2023-07-13T03:43:15;18.60;99.90
17948;DHT22;9099;47.958;11.366;2023-07-13T03:45:42;18.60;99.90
17948;DHT22;9099;47.958;11.366;2023-07-13T03:48:09;18.60;99.90
17948;DHT22;9099;47.958;11.366;2023-07-13T03:50:36;18.50;99.90
17948;DHT22;9099;47.958;11.366;2023-07-13T03:53:04;18.50;99.90
17948;DHT22;9099;47.958;11.366;2023-07-13T03:55:34;18.50;99.90
17948;DHT22;9099;47.958;11.366;2023-07-13T03:58:23;18.50;99.90
17948;DHT22;9099;47.958;11.366;2023-07-13T04:00:51;18.50;99.90
17948;DHT22;9099;47.958;11.366;2023-07-13T04:03:18;18.50;99.90
17948;DHT22;9099;47.958;11.366;2023-07-13T04:05:45;18.40;99.90
17948;DHT22;9099;47.958;11.366;2023-07-13T04:08:12;18.30;99.90
17948;DHT22;9099;47.958;11.366;2023-07-13T04:10:39;18.40;99.90
17948;DHT22;9099;47.958;11.366;2023-07-13T04:13:07;18.40;99.90
17948;DHT22;9099;47.958;11.366;2023-07-13T04:15:34;18.40;99.90
17948;DHT22;9099;47.958;11.366;2023-07-13T04:18:01;18.40;99.90
17948;DHT22;9099;47.958;11.366;2023-07-13T04:20:29;18.40;99.90
17948;DHT22;9099;47.958;11.366;2023-07-13T04:22:55;18.40;99.90
17948;DHT22;9099;47.958;11.366;2023-07-13T04:25:23;18.30;99.90
17948;DHT22;9099;47.958;11.366;2023-07-13T04:27:50;18.30;99.90
17948;DHT22;9099;47.958;11.366;2023-07-13T04:30:18;18.30;99.90
17948;DHT22;9099;47.958;11.366;2023-07-13T04:32:45;18.40;99.90
17948;DHT22;9099;47.958;11.366;2023-07-13T04:35:12;18.40;99.90
17948;DHT22;9099;47.958;11.366;2023-07-13T04:37:40;18.50;99.90
17948;DHT22;9099;47.958;11.366;2023-07-13T04:40:07;18.50;99.90
17948;DHT22;9099;47.958;11.366;2023-07-13T04:42:37;18.50;99.90
17948;DHT22;9099;47.958;11.366;2023-07-13T04:45:05;18.50;99.90
17948;DHT22;9099;47.958;11.366;2023-07-13T04:47:33;18.60;99.90
17948;DHT22;9099;47.958;11.366;2023-07-13T04:50:00;18.60;99.90
17948;DHT22;9099;47.958;11.366;2023-07-13T04:52:27;18.50;99.90
17948;DHT22;9099;47.958;11.366;2023-07-13T04:54:54;18.50;99.90
17948;DHT22;9099;47.958;11.366;2023-07-13T04:57:20;18.50;99.90
17948;DHT22;9099;47.958;11.366;2023-07-13T04:59:47;18.60;99.90
17948;DHT22;9099;47.958;11.366;2023-07-13T05:02:14;18.60;99.90
17948;DHT22;9099;47.958;11.366;2023-07-13T05:04:42;18.60;99.90
17948;DHT22;9099;47.958;11.366;2023-07-13T05:07:10;18.60;99.90
17948;DHT22;9099;47.958;11.366;2023-07-13T05:09:36;18.60;99.90
17948;DHT22;9099;47.958;11.366;2023-07-13T05:12:06;18.60;99.90
17948;DHT22;9099;47.958;11.366;2023-07-13T05:14:33;18.70;99.90
17948;DHT22;9099;47.958;11.366;2023-07-13T05:17:00;18.70;99.90
17948;DHT22;9099;47.958;11.366;2023-07-13T05:19:27;18.70;99.90
17948;DHT22;9099;47.958;11.366;2023-07-13T05:21:56;18.70;99.90
17948;DHT22;9099;47.958;11.366;2023-07-13T05:24:23;18.70;99.90
17948;DHT22;9099;47.958;11.366;2023-07-13T05:26:50;18.80;99.90
17948;DHT22;9099;47.958;11.366;2023-07-13T05:29:17;18.70;99.90
17948;DHT22;9099;47.958;11.366;2023-07-13T05:31:43;18.60;99.90
17948;DHT22;9099;47.958;11.366;2023-07-13T05:34:10;18.70;99.90
17948;DHT22;9099;47.958;11.366;2023-07-13T05:36:37;18.70;99.90
17948;DHT22;9099;47.958;11.366;2023-07-13T05:39:05;18.60;99.90
17948;DHT22;9099;47.958;11.366;2023-07-13T05:41:32;18.70;99.90
17948;DHT22;9099;47.958;11.366;2023-07-13T05:43:59;18.70;99.90
17948;DHT22;9099;47.958;11.366;2023-07-13T05:46:26;18.80;99.90
17948;DHT22;9099;47.958;11.366;2023-07-13T05:48:53;18.90;99.90
17948;DHT22;9099;47.958;11.366;2023-07-13T05:51:20;19.00;99.90
17948;DHT22;9099;47.958;11.366;2023-07-13T05:53:47;19.10;99.90
17948;DHT22;9099;47.958;11.366;2023-07-13T05:56:15;19.20;99.90
17948;DHT22;9099;47.958;11.366;2023-07-13T05:58:42;19.30;99.90
17948;DHT22;9099;47.958;11.366;2023-07-13T06:01:12;19.40;99.90
17948;DHT22;9099;47.958;11.366;2023-07-13T06:03:39;19.40;99.90
17948;DHT22;9099;47.958;11.366;2023-07-13T06:06:08;19.40;99.90
17948;DHT22;9099;47.958;11.366;2023-07-13T06:08:36;19.30;99.90
17948;DHT22;9099;47.958;11.366;2023-07-13T06:11:05;19.30;99.90
17948;DHT22;9099;47.958;11.366;2023-07-13T06:13:33;19.30;99.90
17948;DHT22;9099;47.958;11.366;2023-07-13T06:16:01;19.20;99.90
17948;DHT22;9099;47.958;11.366;2023-07-13T06:18:29;19.20;99.90
17948;DHT22;9099;47.958;11.366;2023-07-13T06:20:56;19.20;99.90
17948;DHT22;9099;47.958;11.366;2023-07-13T06:23:23;19.20;99.90
17948;DHT22;9099;47.958;11.366;2023-07-13T06:25:50;19.20;99.90
17948;DHT22;9099;47.958;11.366;2023-07-13T06:28:16;19.20;99.90
17948;DHT22;9099;47.958;11.366;2023-07-13T06:30:45;19.20;99.90
17948;DHT22;9099;47.958;11.366;2023-07-13T06:33:11;19.30;99.90
17948;DHT22;9099;47.958;11.366;2023-07-13T06:35:38;19.30;99.90
17948;DHT22;9099;47.958;11.366;2023-07-13T06:38:05;19.20;99.90
17948;DHT22;9099;47.958;11.366;2023-07-13T06:40:32;19.30;99.90
17948;DHT22;9099;47.958;11.366;2023-07-13T06:42:59;19.30;99.90
17948;DHT22;9099;47.958;11.366;2023-07-13T06:45:25;19.30;99.90
17948;DHT22;9099;47.958;11.366;2023-07-13T06:47:53;19.30;99.90
17948;DHT22;9099;47.958;11.366;2023-07-13T06:50:20;19.30;99.90
17948;DHT22;9099;47.958;11.366;2023-07-13T06:52:47;19.40;99.90
17948;DHT22;9099;47.958;11.366;2023-07-13T06:55:14;19.40;99.90
17948;DHT22;9099;47.958;11.366;2023-07-13T06:57:41;19.40;99.90
17948;DHT22;9099;47.958;11.366;2023-07-13T07:00:09;19.40;99.90
17948;DHT22;9099;47.958;11.366;2023-07-13T07:02:36;19.50;99.90
17948;DHT22;9099;47.958;11.366;2023-07-13T07:05:04;19.50;99.90
17948;DHT22;9099;47.958;11.366;2023-07-13T07:07:31;19.50;99.90
17948;DHT22;9099;47.958;11.366;2023-07-13T07:09:58;19.70;99.90
17948;DHT22;9099;47.958;11.366;2023-07-13T07:12:25;19.70;99.90
17948;DHT22;9099;47.958;11.366;2023-07-13T07:14:52;19.90;99.90
17948;DHT22;9099;47.958;11.366;2023-07-13T07:17:19;20.00;99.90
17948;DHT22;9099;47.958;11.366;2023-07-13T07:19:45;20.10;99.90
17948;DHT22;9099;47.958;11.366;2023-07-13T07:22:14;20.10;99.90
17948;DHT22;9099;47.958;11.366;2023-07-13T07:24:40;20.10;99.90
17948;DHT22;9099;47.958;11.366;2023-07-13T07:27:07;20.00;99.90
17948;DHT22;9099;47.958;11.366;2023-07-13T07:29:34;20.00;99.90
17948;DHT22;9099;47.958;11.366;2023-07-13T07:32:01;19.90;99.90
17948;DHT22;9099;47.958;11.366;2023-07-13T07:34:28;19.80;99.90
17948;DHT22;9099;47.958;11.366;2023-07-13T07:36:56;19.70;99.90
17948;DHT22;9099;47.958;11.366;2023-07-13T07:39:24;19.60;99.90
17948;DHT22;9099;47.958;11.366;2023-07-13T07:41:51;19.60;99.90
17948;DHT22;9099;47.958;11.366;2023-07-13T07:44:18;19.50;99.90
17948;DHT22;9099;47.958;11.366;2023-07-13T07:46:45;19.50;99.90
17948;DHT22;9099;47.958;11.366;2023-07-13T07:49:12;19.50;99.90
17948;DHT22;9099;47.958;11.366;2023-07-13T07:51:38;19.40;99.90
17948;DHT22;9099;47.958;11.366;2023-07-13T07:54:06;19.30;99.90
17948;DHT22;9099;47.958;11.366;2023-07-13T07:56:34;19.30;99.90
17948;DHT22;9099;47.958;11.366;2023-07-13T07:59:01;19.30;99.90
17948;DHT22;9099;47.958;11.366;2023-07-13T08:01:27;19.20;99.90
17948;DHT22;9099;47.958;11.366;2023-07-13T08:03:54;19.10;99.90
17948;DHT22;9099;47.958;11.366;2023-07-13T08:06:21;19.00;99.90
17948;DHT22;9099;47.958;11.366;2023-07-13T08:08:48;18.80;99.90
17948;DHT22;9099;47.958;11.366;2023-07-13T08:11:16;18.70;99.90
17948;DHT22;9099;47.958;11.366;2023-07-13T08:13:45;18.70;99.90
17948;DHT22;9099;47.958;11.366;2023-07-13T08:16:11;18.70;99.90
17948;DHT22;9099;47.958;11.366;2023-07-13T08:18:38;18.70;99.90
17948;DHT22;9099;47.958;11.366;2023-07-13T08:21:06;18.70;99.90
17948;DHT22;9099;47.958;11.366;2023-07-13T08:23:33;18.70;99.90
17948;DHT22;9099;47.958;11.366;2023-07-13T08:26:00;18.80;99.90
17948;DHT22;9099;47.958;11.366;2023-07-13T08:28:28;18.80;99.90
17948;DHT22;9099;47.958;11.366;2023-07-13T08:31:00;18.90;99.90
17948;DHT22;9099;47.958;11.366;2023-07-13T08:33:27;18.90;99.90
17948;DHT22;9099;47.958;11.366;2023-07-13T08:35:54;18.90;99.90
17948;DHT22;9099;47.958;11.366;2023-07-13T08:38:21;18.90;99.90
17948;DHT22;9099;47.958;11.366;2023-07-13T08:40:54;18.80;99.90
17948;DHT22;9099;47.958;11.366;2023-07-13T08:43:25;18.90;99.90
17948;DHT22;9099;47.958;11.366;2023-07-13T08:45:57;18.90;99.90
17948;DHT22;9099;47.958;11.366;2023-07-13T08:48:30;18.90;99.90
17948;DHT22;9099;47.958;11.366;2023-07-13T08:51:00;19.00;99.90
17948;DHT22;9099;47.958;11.366;2023-07-13T08:53:34;19.00;99.90
17948;DHT22;9099;47.958;11.366;2023-07-13T08:56:01;19.10;99.90
17948;DHT22;9099;47.958;11.366;2023-07-13T08:58:29;19.30;99.90
17948;DHT22;9099;47.958;11.366;2023-07-13T09:01:03;19.30;99.90
17948;DHT22;9099;47.958;11.366;2023-07-13T09:03:36;19.30;99.90
17948;DHT22;9099;47.958;11.366;2023-07-13T09:06:04;19.40;99.90
17948;DHT22;9099;47.958;11.366;2023-07-13T09:08:48;19.40;99.90
17948;DHT22;9099;47.958;11.366;2023-07-13T09:11:32;19.40;99.90
17948;DHT22;9099;47.958;11.366;2023-07-13T09:14:12;19.40;99.90
17948;DHT22;9099;47.958;11.366;2023-07-13T09:16:45;19.30;99.90
17948;DHT22;9099;47.958;11.366;2023-07-13T09:19:19;19.30;99.90
17948;DHT22;9099;47.958;11.366;2023-07-13T09:21:48;19.20;99.90
17948;DHT22;9099;47.958;11.366;2023-07-13T09:24:31;19.20;99.90
17948;DHT22;9099;47.958;11.366;2023-07-13T09:29:37;19.20;99.90
17948;DHT22;9099;47.958;11.366;2023-07-13T09:32:11;19.20;99.90
17948;DHT22;9099;47.958;11.366;2023-07-13T09:34:39;19.30;99.90
17948;DHT22;9099;47.958;11.366;2023-07-13T09:37:06;19.30;99.90
17948;DHT22;9099;47.958;11.366;2023-07-13T09:39:35;19.20;99.90
17948;DHT22;9099;47.958;11.366;2023-07-13T09:42:11;19.30;99.90
17948;DHT22;9099;47.958;11.366;2023-07-13T09:44:52;19.50;99.90
17948;DHT22;9099;47.958;11.366;2023-07-13T09:47:22;19.60;99.90
17948;DHT22;9099;47.958;11.366;2023-07-13T09:49:55;19.70;99.90
17948;DHT22;9099;47.958;11.366;2023-07-13T09:52:24;19.70;99.90
17948;DHT22;9099;47.958;11.366;2023-07-13T09:54:53;19.80;99.90
17948;DHT22;9099;47.958;11.366;2023-07-13T09:57:25;19.90;99.90
17948;DHT22;9099;47.958;11.366;2023-07-13T09:59:54;20.00;99.90
17948;DHT22;9099;47.958;11.366;2023-07-13T10:02:28;20.20;99.90
17948;DHT22;9099;47.958;11.366;2023-07-13T10:04:56;20.40;99.90
17948;DHT22;9099;47.958;11.366;2023-07-13T10:07:24;20.60;99.90
17948;DHT22;9099;47.958;11.366;2023-07-13T10:09:52;20.70;99.90
17948;DHT22;9099;47.958;11.366;2023-07-13T10:12:20;20.80;99.90
17948;DHT22;9099;47.958;11.366;2023-07-13T10:14:51;20.90;99.90
17948;DHT22;9099;47.958;11.366;2023-07-13T10:17:27;21.00;99.90
17948;DHT22;9099;47.958;11.366;2023-07-13T10:19:58;21.30;99.90
17948;DHT22;9099;47.958;11.366;2023-07-13T10:22:29;21.60;99.90
17948;DHT22;9099;47.958;11.366;2023-07-13T10:24:58;21.80;99.90
17948;DHT22;9099;47.958;11.366;2023-07-13T10:27:31;22.40;99.90
17948;DHT22;9099;47.958;11.366;2023-07-13T10:30:04;23.10;99.90
17948;DHT22;9099;47.958;11.366;2023-07-13T10:32:37;23.70;99.90
17948;DHT22;9099;47.958;11.366;2023-07-13T10:35:05;24.10;99.90
17948;DHT22;9099;47.958;11.366;2023-07-13T10:37:41;24.50;99.90
17948;DHT22;9099;47.958;11.366;2023-07-13T10:40:14;24.50;99.90
17948;DHT22;9099;47.958;11.366;2023-07-13T10:42:46;24.40;99.90
17948;DHT22;9099;47.958;11.366;2023-07-13T10:45:15;24.70;99.90
17948;DHT22;9099;47.958;11.366;2023-07-13T10:47:45;24.90;99.90
17948;DHT22;9099;47.958;11.366;2023-07-13T10:50:17;25.70;99.90
17948;DHT22;9099;47.958;11.366;2023-07-13T10:52:47;26.00;99.90
17948;DHT22;9099;47.958;11.366;2023-07-13T10:55:31;26.10;99.90
17948;DHT22;9099;47.958;11.366;2023-07-13T10:58:01;26.40;99.90
17948;DHT22;9099;47.958;11.366;2023-07-13T11:00:31;26.60;99.90
17948;DHT22;9099;47.958;11.366;2023-07-13T11:03:02;26.90;99.90
17948;DHT22;9099;47.958;11.366;2023-07-13T11:05:32;27.00;99.90
17948;DHT22;9099;47.958;11.366;2023-07-13T11:08:13;27.00;99.90
17948;DHT22;9099;47.958;11.366;2023-07-13T11:10:50;26.90;99.90
17948;DHT22;9099;47.958;11.366;2023-07-13T11:13:55;26.60;99.90
17948;DHT22;9099;47.958;11.366;2023-07-13T11:16:44;25.90;99.90
17948;DHT22;9099;47.958;11.366;2023-07-13T11:19:39;25.70;99.90
17948;DHT22;9099;47.958;11.366;2023-07-13T11:22:15;25.50;99.90
17948;DHT22;9099;47.958;11.366;2023-07-13T11:24:51;25.50;99.90
17948;DHT22;9099;47.958;11.366;2023-07-13T11:27:27;25.70;99.90
17948;DHT22;9099;47.958;11.366;2023-07-13T11:30:31;26.00;99.90
17948;DHT22;9099;47.958;11.366;2023-07-13T11:33:11;26.40;99.90
17948;DHT22;9099;47.958;11.366;2023-07-13T11:35:45;26.60;99.90
17948;DHT22;9099;47.958;11.366;2023-07-13T11:38:16;26.40;99.90
17948;DHT22;9099;47.958;11.366;2023-07-13T11:40:44;26.40;99.90
17948;DHT22;9099;47.958;11.366;2023-07-13T11:43:14;26.70;99.90
17948;DHT22;9099;47.958;11.366;2023-07-13T11:45:41;27.00;99.90
17948;DHT22;9099;47.958;11.366;2023-07-13T11:48:22;27.10;99.90
17948;DHT22;9099;47.958;11.366;2023-07-13T11:50:54;27.30;99.90
17948;DHT22;9099;47.958;11.366;2023-07-13T11:53:22;27.60;99.90
17948;DHT22;9099;47.958;11.366;2023-07-13T11:55:52;27.80;99.90
17948;DHT22;9099;47.958;11.366;2023-07-13T11:58:23;27.80;99.90
17948;DHT22;9099;47.958;11.366;2023-07-13T12:00:51;27.80;99.90
17948;DHT22;9099;47.958;11.366;2023-07-13T12:03:22;28.10;99.90
17948;DHT22;9099;47.958;11.366;2023-07-13T12:06:02;28.30;99.90
17948;DHT22;9099;47.958;11.366;2023-07-13T12:08:31;28.60;99.90
17948;DHT22;9099;47.958;11.366;2023-07-13T12:11:16;28.50;99.90
17948;DHT22;9099;47.958;11.366;2023-07-13T12:13:44;28.50;99.90
17948;DHT22;9099;47.958;11.366;2023-07-13T12:16:15;28.60;99.90
17948;DHT22;9099;47.958;11.366;2023-07-13T12:18:43;28.90;99.90
17948;DHT22;9099;47.958;11.366;2023-07-13T12:21:17;28.90;99.90
17948;DHT22;9099;47.958;11.366;2023-07-13T12:23:47;28.70;99.90
17948;DHT22;9099;47.958;11.366;2023-07-13T12:26:15;28.50;99.90
17948;DHT22;9099;47.958;11.366;2023-07-13T12:28:46;28.30;99.90
17948;DHT22;9099;47.958;11.366;2023-07-13T12:31:29;28.00;99.90
17948;DHT22;9099;47.958;11.366;2023-07-13T12:34:01;27.60;99.90
17948;DHT22;9099;47.958;11.366;2023-07-13T12:36:34;27.40;99.90
17948;DHT22;9099;47.958;11.366;2023-07-13T12:39:11;27.10;99.90
17948;DHT22;9099;47.958;11.366;2023-07-13T12:41:39;27.10;99.90
17948;DHT22;9099;47.958;11.366;2023-07-13T12:44:10;27.30;99.90
17948;DHT22;9099;47.958;11.366;2023-07-13T12:46:38;27.70;99.90
17948;DHT22;9099;47.958;11.366;2023-07-13T12:49:06;27.90;99.90
17948;DHT22;9099;47.958;11.366;2023-07-13T12:51:37;28.10;99.90
17948;DHT22;9099;47.958;11.366;2023-07-13T12:54:15;28.10;99.90
17948;DHT22;9099;47.958;11.366;2023-07-13T12:56:43;28.50;99.90
17948;DHT22;9099;47.958;11.366;2023-07-13T12:59:17;28.70;99.90
17948;DHT22;9099;47.958;11.366;2023-07-13T13:01:45;28.70;99.90
17948;DHT22;9099;47.958;11.366;2023-07-13T13:04:12;28.40;99.90
17948;DHT22;9099;47.958;11.366;2023-07-13T13:06:41;28.30;99.90
17948;DHT22;9099;47.958;11.366;2023-07-13T13:09:12;28.30;99.90
17948;DHT22;9099;47.958;11.366;2023-07-13T13:11:40;28.20;99.90
17948;DHT22;9099;47.958;11.366;2023-07-13T13:14:07;28.40;99.90
17948;DHT22;9099;47.958;11.366;2023-07-13T13:16:35;28.40;99.90
17948;DHT22;9099;47.958;11.366;2023-07-13T13:19:13;28.30;99.90
17948;DHT22;9099;47.958;11.366;2023-07-13T13:21:43;28.20;99.90
17948;DHT22;9099;47.958;11.366;2023-07-13T13:24:15;27.80;99.90
17948;DHT22;9099;47.958;11.366;2023-07-13T13:26:43;27.50;99.90
17948;DHT22;9099;47.958;11.366;2023-07-13T13:29:15;27.30;99.90
17948;DHT22;9099;47.958;11.366;2023-07-13T13:31:42;26.80;99.90
17948;DHT22;9099;47.958;11.366;2023-07-13T13:34:11;26.50;99.90
17948;DHT22;9099;47.958;11.366;2023-07-13T13:36:41;26.60;99.90
17948;DHT22;9099;47.958;11.366;2023-07-13T13:39:20;26.60;99.90
17948;DHT22;9099;47.958;11.366;2023-07-13T13:41:48;26.60;99.90
17948;DHT22;9099;47.958;11.366;2023-07-13T13:44:16;26.60;99.90
17948;DHT22;9099;47.958;11.366;2023-07-13T13:46:45;26.70;99.90
17948;DHT22;9099;47.958;11.366;2023-07-13T13:49:15;26.50;99.90
17948;DHT22;9099;47.958;11.366;2023-07-13T13:51:44;26.50;99.90
17948;DHT22;9099;47.958;11.366;2023-07-13T13:54:13;26.20;99.90
17948;DHT22;9099;47.958;11.366;2023-07-13T13:56:42;26.10;99.90
17948;DHT22;9099;47.958;11.366;2023-07-13T13:59:09;25.90;99.90
17948;DHT22;9099;47.958;11.366;2023-07-13T14:01:36;25.70;99.90
17948;DHT22;9099;47.958;11.366;2023-07-13T14:04:04;25.50;99.90
17948;DHT22;9099;47.958;11.366;2023-07-13T14:06:32;25.40;99.90
17948;DHT22;9099;47.958;11.366;2023-07-13T14:09:01;25.50;99.90
17948;DHT22;9099;47.958;11.366;2023-07-13T14:11:30;25.50;99.90
17948;DHT22;9099;47.958;11.366;2023-07-13T14:13:59;25.50;99.90
17948;DHT22;9099;47.958;11.366;2023-07-13T14:16:29;25.70;99.90
17948;DHT22;9099;47.958;11.366;2023-07-13T14:18:57;26.20;99.90
17948;DHT22;9099;47.958;11.366;2023-07-13T14:21:26;26.00;99.90
17948;DHT22;9099;47.958;11.366;2023-07-13T14:23:54;26.20;99.90
17948;DHT22;9099;47.958;11.366;2023-07-13T14:26:24;26.60;99.90
17948;DHT22;9099;47.958;11.366;2023-07-13T14:28:52;26.90;99.90
17948;DHT22;9099;47.958;11.366;2023-07-13T14:31:20;27.10;99.90
17948;DHT22;9099;47.958;11.366;2023-07-13T14:33:47;26.90;99.90
17948;DHT22;9099;47.958;11.366;2023-07-13T14:36:23;26.80;99.90
17948;DHT22;9099;47.958;11.366;2023-07-13T14:38:52;26.90;99.90
17948;DHT22;9099;47.958;11.366;2023-07-13T14:41:19;26.90;99.90
17948;DHT22;9099;47.958;11.366;2023-07-13T14:43:47;26.50;99.90
17948;DHT22;9099;47.958;11.366;2023-07-13T14:46:24;26.20;99.90
17948;DHT22;9099;47.958;11.366;2023-07-13T14:48:54;26.20;99.90
17948;DHT22;9099;47.958;11.366;2023-07-13T14:51:24;26.10;99.90
17948;DHT22;9099;47.958;11.366;2023-07-13T14:53:51;25.90;99.90
17948;DHT22;9099;47.958;11.366;2023-07-13T14:56:17;25.60;99.90
17948;DHT22;9099;47.958;11.366;2023-07-13T14:58:46;25.50;99.90
17948;DHT22;9099;47.958;11.366;2023-07-13T15:01:14;25.40;99.90
17948;DHT22;9099;47.958;11.366;2023-07-13T15:03:45;25.50;99.90
17948;DHT22;9099;47.958;11.366;2023-07-13T15:06:13;25.60;99.90
17948;DHT22;9099;47.958;11.366;2023-07-13T15:08:41;25.90;99.90
17948;DHT22;9099;47.958;11.366;2023-07-13T15:11:08;26.30;99.90
17948;DHT22;9099;47.958;11.366;2023-07-13T15:13:38;26.40;99.90
17948;DHT22;9099;47.958;11.366;2023-07-13T15:16:13;26.40;99.90
17948;DHT22;9099;47.958;11.366;2023-07-13T15:18:40;26.40;99.90
17948;DHT22;9099;47.958;11.366;2023-07-13T15:21:09;26.20;99.90
17948;DHT22;9099;47.958;11.366;2023-07-13T15:23:39;26.20;99.90
17948;DHT22;9099;47.958;11.366;2023-07-13T15:26:10;26.20;99.90
17948;DHT22;9099;47.958;11.366;2023-07-13T15:28:37;26.20;99.90
17948;DHT22;9099;47.958;11.366;2023-07-13T15:31:19;26.10;99.90
17948;DHT22;9099;47.958;11.366;2023-07-13T15:33:47;26.10;99.90
17948;DHT22;9099;47.958;11.366;2023-07-13T15:36:15;25.90;99.90
17948;DHT22;9099;47.958;11.366;2023-07-13T15:38:43;25.70;99.90
17948;DHT22;9099;47.958;11.366;2023-07-13T15:41:18;25.50;99.90
17948;DHT22;9099;47.958;11.366;2023-07-13T15:43:48;25.60;99.90
17948;DHT22;9099;47.958;11.366;2023-07-13T15:46:17;25.60;99.90
17948;DHT22;9099;47.958;11.366;2023-07-13T15:48:45;25.80;99.90